^^
Grace C. Lehan Memorial Weather Station Historical Data
Daily Summary for February 22, 2021 Units:  English    Metric   Both
Daily Weekly Monthly Yearly
  High: Low: Average:
Temperature: 90.7 °F 58.7 °F 74.8 °F
Dew Point: 66.6 °F 51.4 °F 58.9 °F
Humidity: 81% 40.7% 60%
Wind Speed: 10mph 0mph 1.3mph
Wind Gust: 19mph - -
Wind- - WNW
Pressure: 30.29 in 29.94 in -
Precipitation: 0.00 in    
 
 
Tabular Data for February 22, 2021
Time Temperature Dew Point Pressure Wind Wind Speed Wind Gust Humidity Rainfall Rate (Hourly) solar
00:00 63.8 °F 51.4 °F 30.29 in Calm     64% 0.00 in 0 W/m2
00:09 63.7 °F 51.6 °F 30.29 in Calm     64.7% 0.00 in 0 W/m2
00:14 63.6 °F 51.6 °F 30.29 in Calm     65% 0.00 in 0 W/m2
00:19 63.5 °F 51.5 °F 30.29 in Calm     65% 0.00 in 0 W/m2
00:24 63.4 °F 51.5 °F 30.29 in Calm     65.1% 0.00 in 0 W/m2
00:29 63.3 °F 51.7 °F 30.29 in Calm     65.6% 0.00 in 0 W/m2
00:34 63.2 °F 51.7 °F 30.28 in Calm     66% 0.00 in 0 W/m2
00:39 63.1 °F 51.6 °F 30.28 in Calm     66% 0.00 in 0 W/m2
00:44 63 °F 51.8 °F 30.28 in Calm     66.6% 0.00 in 0 W/m2
00:49 62.9 °F 51.8 °F 30.28 in Calm     67% 0.00 in 0 W/m2
00:54 62.8 °F 51.7 °F 30.28 in Calm     67% 0.00 in 0 W/m2
00:59 62.7 °F 51.6 °F 30.27 in Calm     67% 0.00 in 0 W/m2
01:04 62.6 °F 51.5 °F 30.27 in Calm     67% 0.00 in 0 W/m2
01:09 62.5 °F 51.4 °F 30.27 in Calm     67% 0.00 in 0 W/m2
01:14 62.5 °F 51.4 °F 30.26 in Calm   1 mph 67% 0.00 in 0 W/m2
01:19 62.4 °F 51.5 °F 30.26 in Calm   1 mph 67.7% 0.00 in 0 W/m2
01:24 62.3 °F 51.6 °F 30.26 in Calm   1 mph 68% 0.00 in 0 W/m2
01:29 62.2 °F 51.5 °F 30.26 in Calm   1 mph 68% 0.00 in 0 W/m2
01:34 62.1 °F 51.5 °F 30.26 in Calm   1 mph 68% 0.00 in 0 W/m2
01:39 62.1 °F 51.4 °F 30.26 in Calm     68.1% 0.00 in 0 W/m2
01:44 62 °F 51.7 °F 30.26 in Calm     69% 0.00 in 0 W/m2
01:49 61.8 °F 51.6 °F 30.25 in Calm     69% 0.00 in 0 W/m2
01:54 61.7 °F 51.5 °F 30.25 in Calm     69.1% 0.00 in 0 W/m2
01:59 61.6 °F 51.8 °F 30.25 in Calm     70% 0.00 in 0 W/m2
02:04 61.6 °F 51.7 °F 30.25 in Calm     70% 0.00 in 0 W/m2
02:09 61.4 °F 51.6 °F 30.25 in Calm     70% 0.00 in 0 W/m2
02:14 61.3 °F 51.5 °F 30.25 in Calm     70% 0.00 in 0 W/m2
02:19 61.2 °F 51.5 °F 30.25 in Calm     70.2% 0.00 in 0 W/m2
02:24 61.1 °F 51.7 °F 30.24 in Calm     71% 0.00 in 0 W/m2
02:29 61.1 °F 51.6 °F 30.24 in Calm     71% 0.00 in 0 W/m2
02:34 61 °F 51.7 °F 30.24 in Calm     71.4% 0.00 in 0 W/m2
02:39 60.9 °F 51.7 °F 30.24 in Calm     71.5% 0.00 in 0 W/m2
02:44 60.8 °F 51.8 °F 30.24 in Calm     72% 0.00 in 0 W/m2
02:49 60.8 °F 51.7 °F 30.24 in Calm     72% 0.00 in 0 W/m2
02:54 60.7 °F 51.8 °F 30.24 in Calm     72.3% 0.00 in 0 W/m2
02:59 60.6 °F 51.9 °F 30.24 in Calm     73% 0.00 in 0 W/m2
03:04 60.5 °F 51.9 °F 30.23 in Calm     73.2% 0.00 in 0 W/m2
03:09 60.4 °F 52.1 °F 30.23 in Calm     74% 0.00 in 0 W/m2
03:14 60.3 °F 52 °F 30.23 in Calm     74% 0.00 in 0 W/m2
03:19 60.2 °F 52 °F 30.23 in Calm     74.2% 0.00 in 0 W/m2
03:24 60.1 °F 52.2 °F 30.23 in Calm     75% 0.00 in 0 W/m2
03:29 60.1 °F 52.1 °F 30.23 in Calm     75% 0.00 in 0 W/m2
03:34 60 °F 52.1 °F 30.22 in Calm     75% 0.00 in 0 W/m2
03:39 59.9 °F 52 °F 30.22 in Calm     75% 0.00 in 0 W/m2
03:44 59.9 °F 51.9 °F 30.22 in Calm     75% 0.00 in 0 W/m2
03:49 59.8 °F 52 °F 30.22 in Calm     75.3% 0.00 in 0 W/m2
03:54 59.7 °F 52.1 °F 30.22 in Calm     76% 0.00 in 0 W/m2
03:59 59.6 °F 52 °F 30.22 in Calm     76% 0.00 in 0 W/m2
04:00 59.6 °F 52 °F 30.22 in Calm     76% 0.00 in 0 W/m2
04:09 59.4 °F 51.9 °F 30.22 in Calm     76% 0.00 in 0 W/m2
04:14 59.3 °F 51.9 °F 30.22 in Calm     76.5% 0.00 in 0 W/m2
04:19 59.2 °F 52 °F 30.22 in Calm     77% 0.00 in 0 W/m2
04:24 59.1 °F 51.9 °F 30.22 in Calm     77% 0.00 in 0 W/m2
04:29 59 °F 51.8 °F 30.22 in Calm     77% 0.00 in 0 W/m2
04:34 58.9 °F 51.8 °F 30.22 in Calm     77% 0.00 in 0 W/m2
04:39 58.9 °F 51.7 °F 30.22 in Calm     77% 0.00 in 0 W/m2
04:44 58.8 °F 51.9 °F 30.21 in Calm     77.8% 0.00 in 0 W/m2
04:49 58.7 °F 51.9 °F 30.21 in Calm     78% 0.00 in 0 W/m2
04:54 58.7 °F 51.9 °F 30.21 in Calm     78% 0.00 in 0 W/m2
04:59 58.7 °F 52 °F 30.21 in Calm     78.4% 0.00 in 0 W/m2
05:04 58.7 °F 52.2 °F 30.21 in Calm     79% 0.00 in 0 W/m2
05:09 58.7 °F 52.2 °F 30.21 in Calm     79% 0.00 in 0 W/m2
05:14 58.7 °F 52.2 °F 30.21 in Calm     79% 0.00 in 0 W/m2
05:19 58.7 °F 52.2 °F 30.21 in Calm     79% 0.00 in 0 W/m2
05:24 58.7 °F 52.2 °F 30.21 in Calm     79% 0.00 in 0 W/m2
05:29 58.7 °F 52.3 °F 30.21 in Calm     79% 0.00 in 0 W/m2
05:34 58.8 °F 52.6 °F 30.21 in Calm     79.7% 0.00 in 5 W/m2
05:39 58.9 °F 52.7 °F 30.21 in Calm     80% 0.00 in 9 W/m2
05:44 59 °F 52.8 °F 30.21 in Calm     80% 0.00 in 9 W/m2
05:49 59 °F 52.9 °F 30.21 in Calm     80% 0.00 in 11 W/m2
05:54 59.1 °F 53 °F 30.21 in Calm     80% 0.00 in 11 W/m2
05:59 59.2 °F 53 °F 30.20 in Calm     80% 0.00 in 11 W/m2
06:04 59.3 °F 53.2 °F 30.20 in Calm     80.3% 0.00 in 12 W/m2
06:09 59.3 °F 53.3 °F 30.20 in Calm     80.5% 0.00 in 14 W/m2
06:14 59.4 °F 53.5 °F 30.20 in Calm     80.9% 0.00 in 16 W/m2
06:19 59.5 °F 53.4 °F 30.20 in Calm     80.1% 0.00 in 21 W/m2
06:24 59.5 °F 53.5 °F 30.20 in Calm     80.5% 0.00 in 28 W/m2
06:29 59.6 °F 53.5 °F 30.20 in Calm     80% 0.00 in 32 W/m2
06:34 59.8 °F 53.6 °F 30.20 in Calm     80.1% 0.00 in 33 W/m2
06:39 59.9 °F 53.9 °F 30.20 in Calm     80.4% 0.00 in 33 W/m2
06:44 60 °F 53.8 °F 30.20 in Calm     80% 0.00 in 33 W/m2
06:49 60.2 °F 54.1 °F 30.20 in Calm     80.3% 0.00 in 30 W/m2
06:54 60.3 °F 54.2 °F 30.20 in Calm     80.4% 0.00 in 33 W/m2
06:59 60.4 °F 54.2 °F 30.20 in Calm     80% 0.00 in 37 W/m2
07:04 60.5 °F 54.3 °F 30.20 in Calm     80% 0.00 in 40 W/m2
07:09 60.6 °F 54.4 °F 30.20 in Calm     80% 0.00 in 44 W/m2
07:14 60.8 °F 54.6 °F 30.20 in Calm     80% 0.00 in 49 W/m2
07:19 60.9 °F 54.9 °F 30.20 in Calm     80.7% 0.00 in 56 W/m2
07:24 61 °F 55.1 °F 30.19 in Calm     81% 0.00 in 60 W/m2
07:29 61.1 °F 55.1 °F 30.19 in Calm     80.6% 0.00 in 67 W/m2
07:34 61.2 °F 55 °F 30.19 in Calm     80% 0.00 in 90 W/m2
07:39 61.4 °F 55.2 °F 30.19 in Calm     80% 0.00 in 109 W/m2
07:44 61.5 °F 55.2 °F 30.19 in Calm     79.6% 0.00 in 121 W/m2
07:49 61.8 °F 55.1 °F 30.19 in Calm     78.8% 0.00 in 135 W/m2
07:54 62 °F 55.2 °F 30.19 in Calm     78.3% 0.00 in 146 W/m2
07:59 62.3 °F 55.3 °F 30.19 in Calm     78% 0.00 in 162 W/m2
08:00 62.5 °F 55.6 °F 30.19 in Calm     78% 0.00 in 162 W/m2
08:09 63 °F 56 °F 30.19 in Calm     77.8% 0.00 in 167 W/m2
08:14 63.4 °F 56.2 °F 30.19 in Calm     77.6% 0.00 in 156 W/m2
08:19 63.7 °F 56 °F 30.19 in Calm     76.2% 0.00 in 146 W/m2
08:24 63.9 °F 56 °F 30.19 in Calm     75.6% 0.00 in 155 W/m2
08:29 64.2 °F 56.4 °F 30.19 in Calm     75.7% 0.00 in 167 W/m2
08:34 64.5 °F 56.5 °F 30.19 in Calm     75.1% 0.00 in 214 W/m2
08:39 64.8 °F 56.5 °F 30.19 in Calm     74.3% 0.00 in 232 W/m2
08:44 65.2 °F 56.7 °F 30.19 in Calm     74% 0.00 in 248 W/m2
08:49 65.6 °F 57.1 °F 30.19 in Calm     73.9% 0.00 in 267 W/m2
08:54 66 °F 57.1 °F 30.19 in Calm     73% 0.00 in 283 W/m2
08:59 66.4 °F 57.6 °F 30.18 in Calm     73.2% 0.00 in 360 W/m2
09:04 67 °F 58.3 °F 30.18 in Calm     73.4% 0.00 in 396 W/m2
09:09 67.8 °F 58.7 °F 30.18 in Calm     72.6% 0.00 in 680 W/m2
09:14 68.9 °F 58.5 °F 30.18 in Calm     69.5% 0.00 in 754 W/m2
09:19 69.6 °F 58.7 °F 30.18 in Calm     68.2% 0.00 in 459 W/m2
09:24 70 °F 59.1 °F 30.18 in Calm     68.4% 0.00 in 745 W/m2
09:29 71 °F 59.8 °F 30.17 in Calm     67.7% 0.00 in 867 W/m2
09:34 72.3 °F 60.2 °F 30.17 in Calm     65.7% 0.00 in 756 W/m2
09:39 73.4 °F 60.4 °F 30.17 in Calm     63.9% 0.00 in 721 W/m2
09:44 74.4 °F 61.5 °F 30.17 in Calm     64.1% 0.00 in 605 W/m2
09:49 75.1 °F 60.8 °F 30.16 in Calm     61.2% 0.00 in 575 W/m2
09:54 75.5 °F 61 °F 30.16 in Calm     60.8% 0.00 in 668 W/m2
09:59 75.9 °F 61.7 °F 30.16 in Calm     61.5% 0.00 in 761 W/m2
10:04 76.4 °F 62.1 °F 30.16 in Calm     61.2% 0.00 in 761 W/m2
10:09 76.7 °F 61.7 °F 30.16 in Calm     59.9% 0.00 in 777 W/m2
10:14 76.8 °F 62.1 °F 30.15 in Calm     60.4% 0.00 in 777 W/m2
10:19 77.1 °F 62.1 °F 30.15 in Calm     60% 0.00 in 649 W/m2
10:24 77.4 °F 62.2 °F 30.15 in Calm     59.5% 0.00 in 649 W/m2
10:29 77.7 °F 62.4 °F 30.15 in Calm     59.4% 0.00 in 469 W/m2
10:34 77.9 °F 62.4 °F 30.14 in Calm     59% 0.00 in 589 W/m2
10:39 78.1 °F 63 °F 30.14 in Calm     59.8% 0.00 in 640 W/m2
10:44 78.3 °F 62.9 °F 30.14 in Calm     59.2% 0.00 in 554 W/m2
10:49 78.7 °F 63.8 °F 30.14 in Calm     60.2% 0.00 in 645 W/m2
10:54 79.3 °F 63.9 °F 30.14 in Calm     59.3% 0.00 in 663 W/m2
10:59 80 °F 64.6 °F 30.14 in Calm     59.5% 0.00 in 715 W/m2
11:04 80.8 °F 65.2 °F 30.13 in Calm     59.1% 0.00 in 698 W/m2
11:09 81.5 °F 65.6 °F 30.13 in Calm     58.6% 0.00 in 708 W/m2
11:14 82 °F 65.5 °F 30.13 in Calm     57.4% 0.00 in 680 W/m2
11:19 82.6 °F 66.1 °F 30.12 in Calm     57.5% 0.00 in 745 W/m2
11:24 83.1 °F 65.4 °F 30.12 in Calm     55.4% 0.00 in 742 W/m2
11:29 83.6 °F 66.1 °F 30.12 in Calm     55.8% 0.00 in 779 W/m2
11:34 84.2 °F 66.4 °F 30.11 in Calm     55.2% 0.00 in 772 W/m2
11:39 84.9 °F 66.6 °F 30.11 in Calm     54.3% 0.00 in 731 W/m2
11:44 85.4 °F 66.5 °F 30.11 in WSW 1.2 mph 10 mph 53.3% 0.00 in 497 W/m2
11:49 85.6 °F 65.4 °F 30.11 in West 1.3 mph 10 mph 51% 0.00 in 547 W/m2
11:54 86.1 °F 65.4 °F 30.11 in WNW 1.9 mph 10 mph 50.2% 0.00 in 501 W/m2
11:59 86.4 °F 63.2 °F 30.10 in WNW 2.8 mph 11 mph 46.1% 0.00 in 406 W/m2
12:00 86.4 °F 62.6 °F 30.10 in Calm   11 mph 45% 0.00 in 396 W/m2
12:09 86.5 °F 63.8 °F 30.10 in West 1.3 mph 6 mph 46.8% 0.00 in 415 W/m2
12:14 86.6 °F 64.3 °F 30.10 in WNW 0.4 mph 6 mph 47.5% 0.00 in 424 W/m2
12:19 86.8 °F 64.3 °F 30.10 in WNW 2.5 mph 7 mph 47.3% 0.00 in 399 W/m2
12:24 86.7 °F 62.8 °F 30.09 in WNW 3.5 mph 9 mph 44.8% 0.00 in 390 W/m2
12:29 86.6 °F 63.3 °F 30.09 in WNW 3 mph 9 mph 45.9% 0.00 in 432 W/m2
12:34 86.5 °F 63.8 °F 30.09 in West 1.3 mph 9 mph 47% 0.00 in 513 W/m2
12:38 86.5 °F 64 °F 30.09 in West 1.7 mph 6 mph 47.2% 0.00 in 564 W/m2
12:44 86.6 °F 64.1 °F 30.08 in NW 2.5 mph 7 mph 47.2% 0.00 in 615 W/m2
12:49 86.8 °F 63.6 °F 30.08 in NW 2.7 mph 7 mph 46% 0.00 in 939 W/m2
12:54 87.2 °F 64.1 °F 30.08 in NW 1.9 mph 7 mph 46.3% 0.00 in 969 W/m2
12:59 88 °F 64.8 °F 30.08 in WNW 2.9 mph 9 mph 46.4% 0.00 in 995 W/m2
13:04 88.6 °F 63.9 °F 30.07 in WNW 3.5 mph 10 mph 43.9% 0.00 in 1014 W/m2
13:09 89 °F 63.3 °F 30.07 in WNW 3.9 mph 10 mph 42.5% 0.00 in 933 W/m2
13:14 89 °F 64.4 °F 30.07 in WNW 2.6 mph 10 mph 44.2% 0.00 in 988 W/m2
13:19 89.5 °F 65.7 °F 30.07 in NW 3.1 mph 10 mph 45.5% 0.00 in 1027 W/m2
13:24 90.1 °F 64.5 °F 30.06 in West 4.6 mph 12 mph 42.8% 0.00 in 926 W/m2
13:29 90.3 °F 64.5 °F 30.06 in WSW 3.9 mph 12 mph 42.6% 0.00 in 954 W/m2
13:34 90.6 °F 64.3 °F 30.06 in WNW 4.9 mph 15 mph 41.8% 0.00 in 954 W/m2
13:39 90.7 °F 63.7 °F 30.06 in WNW 6.6 mph 16 mph 40.9% 0.00 in 780 W/m2
13:44 90.6 °F 63.6 °F 30.06 in West 4 mph 16 mph 40.8% 0.00 in 640 W/m2
13:49 90.4 °F 63.7 °F 30.05 in WNW 3.9 mph 16 mph 41.2% 0.00 in 417 W/m2
13:54 90 °F 63 °F 30.05 in WNW 5 mph 16 mph 40.7% 0.00 in 624 W/m2
13:59 89.7 °F 63.6 °F 30.05 in West 2.4 mph 16 mph 42.1% 0.00 in 735 W/m2
14:04 89.7 °F 64.1 °F 30.05 in West 3.1 mph 16 mph 42.7% 0.00 in 735 W/m2
14:09 89.8 °F 64.4 °F 30.05 in WNW 4.7 mph 12 mph 43.1% 0.00 in 904 W/m2
14:14 89.7 °F 64.1 °F 30.04 in West 5.4 mph 12 mph 42.9% 0.00 in 925 W/m2
14:19 89.9 °F 64.2 °F 30.04 in WNW 7 mph 13 mph 42.6% 0.00 in 853 W/m2
14:24 90 °F 64.4 °F 30.04 in West 4.9 mph 13 mph 42.9% 0.00 in 853 W/m2
14:29 89.9 °F 63.6 °F 30.04 in WNW 5.9 mph 15 mph 41.8% 0.00 in 649 W/m2
14:34 89.6 °F 63.8 °F 30.04 in NW 5.4 mph 15 mph 42.5% 0.00 in 745 W/m2
14:39 89.5 °F 64.4 °F 30.04 in West 5.5 mph 19 mph 43.5% 0.00 in 745 W/m2
14:44 89.3 °F 63.5 °F 30.03 in West 6 mph 19 mph 42.5% 0.00 in 499 W/m2
14:49 89.1 °F 64.4 °F 30.03 in West 4.7 mph 19 mph 44.1% 0.00 in 819 W/m2
14:54 89.2 °F 64.1 °F 30.03 in West 5.2 mph 19 mph 43.5% 0.00 in 613 W/m2
14:59 89.3 °F 64.1 °F 30.03 in WNW 5.5 mph 19 mph 43.4% 0.00 in 406 W/m2
15:04 89.1 °F 63.8 °F 30.03 in WNW 3.3 mph 19 mph 43.2% 0.00 in 406 W/m2
15:09 89 °F 64.2 °F 30.03 in WNW 2.6 mph 10 mph 44% 0.00 in 311 W/m2
15:14 88.8 °F 63.9 °F 30.03 in NW 5.5 mph 14 mph 43.7% 0.00 in 290 W/m2
15:19 88.3 °F 63.5 °F 30.02 in WNW 4.1 mph 14 mph 43.8% 0.00 in 315 W/m2
15:24 87.9 °F 63.6 °F 30.02 in WNW 2.6 mph 14 mph 44.4% 0.00 in 420 W/m2
15:29 87.8 °F 63.9 °F 30.02 in NW 2.9 mph 14 mph 45.2% 0.00 in 420 W/m2
15:34 87.8 °F 63.6 °F 30.02 in NW 3.5 mph 14 mph 44.6% 0.00 in 301 W/m2
15:39 87.8 °F 63.7 °F 30.02 in NW 5.4 mph 14 mph 44.9% 0.00 in 601 W/m2
15:44 87.9 °F 64.2 °F 30.01 in NNW 0.9 mph 14 mph 45.5% 0.00 in 601 W/m2
15:49 88.2 °F 64.7 °F 30.01 in NW 4.8 mph 14 mph 45.8% 0.00 in 527 W/m2
15:54 88.2 °F 63.5 °F 30.01 in WNW 6.9 mph 19 mph 43.9% 0.00 in 214 W/m2
15:59 87.9 °F 62.9 °F 30.01 in WNW 6.4 mph 19 mph 43.5% 0.00 in 417 W/m2
16:00 87.7 °F 63.1 °F 30.00 in NW 10 mph 19 mph 44% 0.00 in 262 W/m2
16:09 87.7 °F 63.4 °F 30.00 in WNW 6.1 mph 15 mph 44.5% 0.00 in 622 W/m2
16:14 87.8 °F 63.9 °F 30.00 in WNW 3 mph 15 mph 45.1% 0.00 in 160 W/m2
16:19 87.9 °F 63.9 °F 30.00 in WNW 6.3 mph 15 mph 45% 0.00 in 144 W/m2
16:24 87.6 °F 63.5 °F 30.00 in WNW 3.2 mph 15 mph 44.7% 0.00 in 109 W/m2
16:29 87.3 °F 63.6 °F 30.00 in WNW 3.5 mph 15 mph 45.3% 0.00 in 111 W/m2
16:34 87 °F 63.1 °F 30.00 in WNW 4.6 mph 15 mph 45% 0.00 in 116 W/m2
16:39 86.7 °F 63.5 °F 30.00 in WNW 2.1 mph 7 mph 45.9% 0.00 in 134 W/m2
16:44 86.7 °F 63.1 °F 29.99 in NW 2.6 mph 9 mph 45.4% 0.00 in 162 W/m2
16:49 86.8 °F 63.7 °F 29.99 in WNW 3.6 mph 12 mph 46.1% 0.00 in 169 W/m2
16:54 87 °F 63.5 °F 29.99 in WNW 3.4 mph 12 mph 45.6% 0.00 in 163 W/m2
16:59 87.1 °F 63.7 °F 29.99 in WNW 2.5 mph 12 mph 45.8% 0.00 in 135 W/m2
17:04 87.1 °F 63.5 °F 29.99 in WNW 0.9 mph 12 mph 45.5% 0.00 in 155 W/m2
17:09 87.1 °F 64.1 °F 29.99 in NW 1.7 mph 5 mph 46.5% 0.00 in 149 W/m2
17:14 87 °F 63.3 °F 29.99 in NW 3.5 mph 12 mph 45.3% 0.00 in 130 W/m2
17:19 86.9 °F 63.4 °F 29.99 in WSW 1.7 mph 12 mph 45.7% 0.00 in 141 W/m2
17:24 86.8 °F 63.9 °F 29.99 in NW 1.7 mph 12 mph 46.6% 0.00 in 144 W/m2
17:29 86.7 °F 63.6 °F 29.99 in WNW 2.6 mph 12 mph 46.1% 0.00 in 155 W/m2
17:34 86.7 °F 63.2 °F 29.98 in NW 2.8 mph 12 mph 45.6% 0.00 in 155 W/m2
17:39 86.7 °F 63.4 °F 29.98 in NW 1.4 mph 7 mph 45.9% 0.00 in 149 W/m2
17:44 86.7 °F 63.4 °F 29.98 in NW 3.5 mph 10 mph 45.9% 0.00 in 151 W/m2
17:49 86.7 °F 63.2 °F 29.98 in NW 3.2 mph 10 mph 45.6% 0.00 in 144 W/m2
17:54 86.7 °F 63.1 °F 29.98 in NW 3 mph 10 mph 45.5% 0.00 in 139 W/m2
17:59 86.6 °F 63.1 °F 29.98 in WNW 3 mph 11 mph 45.6% 0.00 in 134 W/m2
18:04 86.5 °F 62.9 °F 29.98 in WNW 3.3 mph 12 mph 45.5% 0.00 in 118 W/m2
18:09 86.3 °F 62.8 °F 29.98 in WNW 2.7 mph 12 mph 45.5% 0.00 in 107 W/m2
18:14 86.1 °F 62.6 °F 29.98 in WNW 2.7 mph 12 mph 45.5% 0.00 in 98 W/m2
18:19 85.9 °F 62.7 °F 29.98 in WNW 2.3 mph 12 mph 45.8% 0.00 in 90 W/m2
18:24 85.7 °F 62 °F 29.98 in WNW 2.1 mph 12 mph 45.2% 0.00 in 84 W/m2
18:29 85.4 °F 61.6 °F 29.98 in NW 3.6 mph 14 mph 44.8% 0.00 in 81 W/m2
18:34 85.2 °F 61.4 °F 29.98 in NW 3.4 mph 14 mph 45% 0.00 in 74 W/m2
18:39 84.9 °F 61.3 °F 29.98 in WNW 3.4 mph 11 mph 45% 0.00 in 65 W/m2
18:44 84.8 °F 60.5 °F 29.98 in WNW 3.4 mph 11 mph 44% 0.00 in 63 W/m2
18:49 84.8 °F 60.7 °F 29.98 in WNW 4.8 mph 12 mph 44.3% 0.00 in 62 W/m2
18:54 84.7 °F 60.4 °F 29.98 in WNW 3.1 mph 12 mph 44% 0.00 in 58 W/m2
18:59 84.6 °F 60.5 °F 29.98 in WNW 3 mph 12 mph 44.4% 0.00 in 53 W/m2
19:04 84.4 °F 60.7 °F 29.98 in West 4.1 mph 12 mph 45% 0.00 in 47 W/m2
19:09 84.1 °F 60.8 °F 29.98 in WNW 1.7 mph 12 mph 45.4% 0.00 in 40 W/m2
19:14 83.9 °F 60.8 °F 29.98 in WNW 3.1 mph 12 mph 45.8% 0.00 in 37 W/m2
19:19 83.7 °F 60.6 °F 29.98 in NW 2.1 mph 12 mph 45.8% 0.00 in 35 W/m2
19:24 83.4 °F 60.5 °F 29.98 in WNW 2.7 mph 12 mph 46% 0.00 in 30 W/m2
19:29 83.2 °F 60.8 °F 29.97 in WNW 0.4 mph 12 mph 46.8% 0.00 in 26 W/m2
19:34 83.1 °F 60.8 °F 29.97 in WNW 1.3 mph 12 mph 47% 0.00 in 23 W/m2
19:39 82.8 °F 60.6 °F 29.97 in West 3 mph 7 mph 47% 0.00 in 21 W/m2
19:44 82.7 °F 60.7 °F 29.97 in WNW 2.4 mph 7 mph 47.4% 0.00 in 21 W/m2
19:49 82.5 °F 60.7 °F 29.97 in WNW 0.7 mph 7 mph 47.6% 0.00 in 19 W/m2
19:54 82.4 °F 60.8 °F 29.97 in Calm   7 mph 48% 0.00 in 16 W/m2
19:59 82.3 °F 60.7 °F 29.97 in Calm   7 mph 48% 0.00 in 12 W/m2
20:00 82.3 °F 60.7 °F 29.97 in Calm   7 mph 48% 0.00 in 9 W/m2
20:09 82.1 °F 60.9 °F 29.97 in WNW 0.3 mph 3 mph 48.7% 0.00 in 5 W/m2
20:14 81.9 °F 60.9 °F 29.97 in Calm   3 mph 49% 0.00 in 5 W/m2
20:19 81.8 °F 60.8 °F 29.97 in WNW 0.1 mph 3 mph 49% 0.00 in 0 W/m2
20:24 81.6 °F 60.6 °F 29.97 in WNW 0.4 mph 3 mph 49% 0.00 in 0 W/m2
20:29 81.4 °F 60.6 °F 29.97 in Calm   3 mph 49.4% 0.00 in 0 W/m2
20:34 81.2 °F 60.8 °F 29.97 in Calm   3 mph 50% 0.00 in 0 W/m2
20:39 81 °F 61 °F 29.96 in Calm     50.7% 0.00 in 0 W/m2
20:44 80.7 °F 60.9 °F 29.96 in Calm     51% 0.00 in 0 W/m2
20:49 80.5 °F 60.8 °F 29.96 in Calm     51.3% 0.00 in 0 W/m2
20:54 80.2 °F 61 °F 29.96 in Calm     52% 0.00 in 0 W/m2
20:59 80.1 °F 60.9 °F 29.97 in Calm     52% 0.00 in 0 W/m2
21:04 79.9 °F 60.7 °F 29.97 in Calm     52% 0.00 in 0 W/m2
21:09 79.7 °F 61 °F 29.97 in Calm     52.8% 0.00 in 0 W/m2
21:14 79.5 °F 60.9 °F 29.97 in Calm     53% 0.00 in 0 W/m2
21:19 79.3 °F 60.7 °F 29.97 in Calm     53% 0.00 in 0 W/m2
21:24 79.1 °F 60.8 °F 29.97 in Calm     53.5% 0.00 in 0 W/m2
21:29 79 °F 60.9 °F 29.97 in Calm     54% 0.00 in 0 W/m2
21:34 78.9 °F 60.8 °F 29.97 in Calm     54% 0.00 in 0 W/m2
21:39 78.7 °F 61 °F 29.97 in Calm     54.5% 0.00 in 0 W/m2
21:44 78.6 °F 61.1 °F 29.97 in Calm     55% 0.00 in 0 W/m2
21:49 78.5 °F 61 °F 29.97 in Calm     55% 0.00 in 0 W/m2
21:54 78.3 °F 60.9 °F 29.97 in WNW 0.1 mph 1 mph 55.1% 0.00 in 0 W/m2
21:59 78.2 °F 61.2 °F 29.97 in Calm   1 mph 55.9% 0.00 in 0 W/m2
22:04 78 °F 61.3 °F 29.97 in Calm   1 mph 56.4% 0.00 in 0 W/m2
22:09 77.8 °F 61.4 °F 29.97 in Calm   1 mph 57% 0.00 in 0 W/m2
22:14 77.6 °F 61.2 °F 29.97 in Calm   1 mph 57% 0.00 in 0 W/m2
22:19 77.5 °F 61.5 °F 29.97 in WNW 0.1 mph 3 mph 57.9% 0.00 in 0 W/m2
22:24 77.2 °F 61.3 °F 29.97 in WNW 1.1 mph 5 mph 58% 0.00 in 0 W/m2
22:29 76.9 °F 61.2 °F 29.96 in West 1.5 mph 7 mph 58.4% 0.00 in 0 W/m2
22:34 76.7 °F 61 °F 29.96 in West 0.4 mph 7 mph 58.2% 0.00 in 0 W/m2
22:39 76.6 °F 61 °F 29.96 in WNW 1.5 mph 9 mph 58.5% 0.00 in 0 W/m2
22:44 76.5 °F 60.7 °F 29.96 in West 1.5 mph 9 mph 58.2% 0.00 in 0 W/m2
22:49 76.4 °F 61 °F 29.96 in WNW 0.7 mph 9 mph 59% 0.00 in 0 W/m2
22:54 76.4 °F 61 °F 29.95 in WNW 0.6 mph 9 mph 59% 0.00 in 0 W/m2
22:59 76.3 °F 61 °F 29.95 in WNW 1.8 mph 9 mph 59% 0.00 in 0 W/m2
23:04 76.3 °F 60.9 °F 29.95 in WNW 2.2 mph 9 mph 59% 0.00 in 0 W/m2
23:09 76.3 °F 60.9 °F 29.95 in WNW 2.1 mph 10 mph 59% 0.00 in 0 W/m2
23:14 76.3 °F 60.9 °F 29.95 in WNW 2.4 mph 10 mph 59% 0.00 in 0 W/m2
23:19 76.3 °F 60.9 °F 29.95 in WNW 3.9 mph 12 mph 59% 0.00 in 0 W/m2
23:24 76.4 °F 60.9 °F 29.95 in WNW 3.6 mph 12 mph 58.8% 0.00 in 0 W/m2
23:29 76.4 °F 60.7 °F 29.95 in West 3 mph 12 mph 58.1% 0.00 in 0 W/m2
23:34 76.5 °F 60.8 °F 29.95 in WNW 2 mph 12 mph 58.3% 0.00 in 0 W/m2
23:39 76.5 °F 61.1 °F 29.95 in WNW 5.5 mph 13 mph 59% 0.00 in 0 W/m2
23:44 76.5 °F 61.1 °F 29.95 in WNW 3.5 mph 13 mph 59% 0.00 in 0 W/m2
23:49 76.5 °F 61.1 °F 29.94 in WNW 4.5 mph 13 mph 59% 0.00 in 0 W/m2
23:54 76.4 °F 61 °F 29.94 in WNW 4.5 mph 15 mph 59% 0.00 in 0 W/m2
23:59 76.4 °F 61 °F 29.94 in WNW 3.8 mph 15 mph 59% 0.00 in 0 W/m2
Hartford County Weather
Compliments of Weather Underground - 4 mb